Date,TemperatureHighF,TemperatureAvgF,TemperatureLowF,DewpointHighF,DewpointAvgF,DewpointLowF,HumidityHigh,HumidityAvg,HumidityLow,PressureMaxIn,PressureMinIn,WindSpeedMaxMPH,WindSpeedAvgMPH,GustSpeedMaxMPH,PrecipitationSumIn
2013-1-1,15.0,7.0,-9.0,8.0,-0.2,-10.0,92,74,56,0.00,40.00,5,-16,9,0.00
2013-1-2,25.0,18.3,12.0,15.0,12.1,8.0,92,78,63,0.00,40.00,6,4,10,0.00
2013-1-3,23.0,17.7,9.0,21.0,15.2,6.0,98,90,82,0.00,40.00,7,6,14,0.00
2013-1-4,32.0,22.2,10.0,18.0,15.2,8.0,94,76,55,0.00,40.00,10,5,17,0.00
2013-1-5,39.0,23.6,5.0,28.0,19.6,5.0,99,86,60,0.00,40.00,11,4,18,0.00
2013-1-6,27.0,21.0,12.0,21.0,17.3,9.0,95,86,68,0.00,40.00,11,5,16,0.00
2013-1-7,38.0,26.5,12.0,28.0,20.0,9.0,91,78,56,0.00,40.00,11,6,27,0.00
2013-1-8,39.0,31.5,14.0,33.0,27.1,14.0,99,84,65,0.00,40.00,12,5,29,0.00
2013-1-9,39.0,32.9,23.0,32.0,26.7,21.0,94,79,54,0.00,40.00,12,8,29,0.00
2013-1-10,37.0,27.1,16.0,34.0,23.9,16.0,99,89,59,0.00,40.00,12,4,16,0.00
2013-1-11,45.0,38.5,34.0,45.0,38.4,34.0,99,99,99,0.00,40.00,11,4,17,0.00
2013-1-12,48.0,28.3,15.0,45.0,21.4,8.0,99,75,66,0.00,40.00,17,10,39,0.00
2013-1-13,15.0,11.2,8.0,8.0,5.1,3.0,80,76,72,0.00,40.00,12,7,20,0.00
2013-1-14,21.0,11.8,5.0,11.0,6.4,3.0,94,80,64,0.00,40.00,11,3,19,0.00
2013-1-15,33.0,19.3,2.0,16.0,10.5,1.0,95,72,46,0.00,40.00,9,4,19,0.00
2013-1-16,34.0,27.2,22.0,32.0,21.7,13.0,96,80,66,0.00,40.00,12,7,19,0.00
2013-1-17,23.0,16.9,11.0,13.0,6.4,2.0,83,64,49,0.00,40.00,11,6,18,0.00
2013-1-18,45.0,30.3,10.0,34.0,24.0,7.0,96,79,57,0.00,40.00,17,6,26,0.00
2013-1-19,47.0,33.6,8.0,35.0,26.2,-2.0,95,75,46,0.00,40.00,29,10,47,0.00
2013-1-20,13.0,7.5,3.0,3.0,-1.5,-3.0,83,67,54,0.00,40.00,20,10,36,0.00
2013-1-21,6.0,-2.0,-6.0,2.0,-7.6,-11.0,89,77,66,0.00,40.00,17,10,27,0.00
2013-1-22,5.0,-4.1,-9.0,-2.0,-8.7,-12.0,87,80,64,0.00,40.00,8,4,15,0.00
2013-1-23,18.0,9.9,-2.0,14.0,4.8,-8.0,91,80,69,0.00,40.00,17,7,28,0.00
2013-1-24,-2.0,-4.1,-5.0,-6.0,-8.9,-10.0,84,80,73,0.00,40.00,7,4,15,0.00
2013-1-30,26.0,19.4,13.0,26.0,16.6,7.0,99,89,75,0.00,40.00,15,11,26,0.00
2013-1-31,9.0,5.0,-2.0,2.0,-1.7,-7.0,81,74,66,0.00,40.00,17,11,26,0.00
2013-2-1,6.0,-0.6,-10.0,1.0,-8.1,-14.0,89,71,52,0.00,40.00,9,4,13,0.00
2013-2-2,17.0,6.9,3.0,5.0,1.2,-1.0,92,78,52,0.00,40.00,7,2,12,0.00
2013-2-3,17.0,12.0,6.0,10.0,6.4,5.0,94,79,62,0.00,40.00,11,-5,17,0.00
2013-2-4,22.0,13.5,4.0,11.0,5.1,-1.0,96,72,44,0.00,40.00,4,2,10,0.00
2013-2-5,28.0,18.8,2.0,26.0,15.2,-2.0,96,86,75,0.00,40.00,12,6,18,0.00
2013-2-6,27.0,13.4,-5.0,25.0,11.6,-6.0,97,92,85,0.00,40.00,10,3,13,0.00
2013-2-7,31.0,27.7,26.0,30.0,27.3,25.0,99,99,96,0.00,40.00,6,3,13,0.00
2013-2-8,30.0,20.7,6.0,23.0,13.1,4.0,92,74,49,0.00,40.00,7,2,12,0.00
2013-2-9,28.0,18.4,1.0,25.0,16.8,0.0,99,93,86,0.00,40.00,9,5,16,0.00
2013-2-10,38.0,32.1,27.0,38.0,31.7,25.0,99,98,92,0.00,40.00,12,7,21,0.00
2013-2-11,36.0,29.6,23.0,35.0,27.3,19.0,99,92,81,0.00,40.00,14,10,28,0.00
2013-2-12,33.0,26.2,19.0,24.0,19.6,15.0,92,77,59,0.00,40.00,12,5,19,0.00
2013-2-13,41.0,31.8,21.0,33.0,26.2,20.0,99,81,57,0.00,40.00,6,3,10,0.00
2013-2-14,34.0,30.9,19.0,34.0,25.8,11.0,99,82,59,0.00,40.00,13,8,24,0.00
2013-2-15,22.0,15.3,10.0,11.0,5.3,1.0,72,65,56,0.00,40.00,12,6,17,0.00
2013-2-16,18.0,10.3,-3.0,6.0,1.5,-7.0,86,68,51,0.00,40.00,7,4,12,0.00
2013-2-17,26.0,11.0,-10.0,19.0,3.3,-12.0,91,73,51,0.00,40.00,11,4,17,0.00
2013-2-18,44.0,32.0,20.0,34.0,26.7,19.0,98,82,63,0.00,40.00,16,7,24,0.00
2013-2-19,20.0,10.7,6.0,19.0,4.0,-4.0,96,75,61,0.00,40.00,19,13,32,0.00
2013-2-20,23.0,10.7,2.0,8.0,2.0,-5.0,81,68,53,0.00,40.00,9,6,15,0.00
2013-2-21,23.0,13.9,1.0,23.0,10.6,-1.0,99,87,74,0.00,40.00,14,6,26,0.00
2013-2-22,32.0,25.2,22.0,27.0,23.3,21.0,99,94,81,0.00,40.00,14,5,26,0.00
2013-2-23,31.0,26.2,22.0,24.0,22.3,21.0,97,86,68,0.00,40.00,8,5,16,0.00
2013-2-24,41.0,27.4,14.0,26.0,19.8,14.0,99,76,47,0.00,40.00,6,2,9,0.00
2013-2-25,40.0,29.3,18.0,27.0,24.0,17.0,97,82,57,0.00,40.00,4,1,6,0.00
2013-2-26,37.0,30.1,22.0,27.0,25.4,22.0,99,83,64,0.00,40.00,14,7,26,0.00
2013-2-27,33.0,31.5,29.0,32.0,29.3,25.0,99,92,80,0.00,40.00,10,7,18,0.00
2013-2-28,32.0,30.0,25.0,30.0,24.7,16.0,96,82,65,0.00,40.00,9,6,16,0.00
2013-3-1,29.0,24.3,20.0,19.0,15.5,10.0,89,70,56,0.00,40.00,9,4,15,0.00
2013-3-2,29.0,19.2,10.0,12.0,7.2,4.0,85,62,38,0.00,40.00,8,3,14,0.00
2013-3-3,32.0,17.3,0.0,12.0,5.1,-1.0,95,64,30,0.00,40.00,5,1,8,0.00
2013-3-4,30.0,22.3,13.0,24.0,15.4,6.0,88,75,63,0.00,40.00,11,7,19,0.00
2013-3-5,27.0,25.7,23.0,27.0,24.8,23.0,99,97,88,0.00,40.00,9,6,18,0.00
2013-3-6,30.0,25.5,15.0,24.0,20.3,12.0,95,82,62,0.00,40.00,11,6,17,0.00
2013-3-7,37.0,21.1,2.0,19.0,13.2,1.0,97,74,46,0.00,40.00,6,2,9,0.00
2013-3-8,42.0,27.9,11.0,27.0,21.2,10.0,99,79,54,0.00,40.00,8,4,17,0.00
2013-3-9,38.0,35.3,31.0,38.0,33.7,27.0,99,93,85,0.00,40.00,10,6,17,0.00
2013-3-10,37.0,35.6,33.0,37.0,35.3,32.0,99,99,99,0.00,40.00,7,3,15,0.00
2013-3-11,33.0,30.0,27.0,32.0,29.4,26.0,99,97,92,0.00,40.00,10,6,20,0.00
2013-3-12,29.0,25.7,21.0,26.0,20.6,15.0,97,82,65,0.00,40.00,14,7,21,0.00
2013-3-13,31.0,23.0,16.0,19.0,12.0,8.0,92,65,40,0.00,40.00,10,7,17,0.00
2013-3-14,39.0,26.5,14.0,29.0,21.8,11.0,96,84,65,0.00,40.00,7,3,12,0.00
2013-3-15,35.0,32.3,29.0,35.0,31.3,28.0,99,96,92,0.00,40.00,11,4,17,0.00
2013-3-16,31.0,24.4,19.0,29.0,19.3,12.0,99,82,63,0.00,40.00,13,-41,17,0.00
2013-3-17,28.0,19.7,8.0,15.0,10.0,3.0,80,67,54,0.00,40.00,14,7,20,0.00
2013-3-18,32.0,21.7,15.0,32.0,19.6,12.0,99,92,80,0.00,40.00,14,7,25,0.00
2013-3-19,25.0,17.3,10.0,12.0,7.9,3.0,86,68,47,0.00,40.00,17,12,32,0.00
2013-3-20,18.0,12.3,6.0,4.0,0.8,-4.0,72,60,54,0.00,40.00,16,11,24,0.00
2013-3-21,29.0,15.8,3.0,10.0,5.6,-1.0,90,66,44,0.00,40.00,8,3,13,0.00
2013-3-22,41.0,23.3,4.0,16.0,10.9,2.0,92,63,36,0.00,40.00,4,1,7,0.00
2013-3-23,44.0,30.1,16.0,22.0,17.8,14.0,94,64,38,0.00,40.00,4,1,8,0.00
2013-3-24,33.0,30.4,28.0,28.0,24.9,22.0,90,80,72,0.00,40.00,9,4,14,0.00
2013-3-25,36.0,30.2,22.0,26.0,23.1,20.0,94,75,63,0.00,40.00,12,7,19,0.00
2013-3-26,38.0,32.3,25.0,27.0,22.5,20.0,86,68,50,0.00,40.00,9,5,14,0.00
2013-3-27,46.0,36.3,28.0,28.0,24.4,20.0,82,64,40,0.00,40.00,6,3,11,0.00
2013-3-28,50.0,35.1,19.0,25.0,21.7,18.0,98,63,34,0.00,40.00,5,1,10,0.00
2013-3-29,53.0,37.0,21.0,29.0,23.7,20.0,99,65,33,0.00,40.00,4,1,11,0.00
2013-3-30,51.0,41.9,32.0,44.0,34.5,-99.9,99,80,63,0.00,40.00,11,5,20,0.00
2013-3-31,39.0,36.2,30.0,39.0,30.3,15.0,99,82,43,0.00,40.00,16,8,29,0.00
2013-4-1,32.0,27.5,22.0,16.0,13.8,12.0,74,57,46,0.00,40.00,13,-33,22,0.00
2013-4-2,36.0,28.7,21.0,19.0,14.9,13.0,82,58,40,0.00,40.00,12,7,21,0.00
2013-4-3,45.0,34.0,19.0,21.0,16.5,14.0,88,52,30,0.00,40.00,9,3,15,0.00
2013-4-4,51.0,42.7,36.0,39.0,28.1,20.0,67,56,47,0.00,40.00,12,7,22,0.00
2013-4-5,47.0,37.7,27.0,35.0,25.9,23.0,99,65,39,0.00,40.00,12,4,17,0.00
2013-4-6,56.0,42.1,32.0,50.0,33.6,20.0,99,74,48,0.00,40.00,12,9,24,0.00
2013-4-7,49.0,40.8,35.0,39.0,34.8,33.0,96,80,59,0.00,40.00,13,7,26,0.00
2013-4-8,47.0,40.4,37.0,43.0,37.9,35.0,99,90,80,0.00,40.00,8,4,14,0.00
2013-4-9,40.0,37.1,35.0,40.0,37.0,35.0,99,99,99,0.00,40.00,11,6,21,0.00
2013-4-10,35.0,32.7,31.0,35.0,32.0,28.0,99,97,75,0.00,40.00,12,5,22,0.00
2013-4-11,35.0,33.2,31.0,34.0,31.3,27.0,99,93,73,0.00,40.00,16,11,27,0.00
2013-4-12,35.0,32.3,30.0,33.0,31.0,29.0,99,95,86,0.00,40.00,8,4,14,0.00
2013-4-13,36.0,33.0,29.0,32.0,28.2,26.0,98,83,67,0.00,40.00,12,6,21,0.00
2013-4-14,39.0,32.6,29.0,38.0,31.4,27.0,99,96,84,0.00,40.00,15,7,23,0.00
2013-4-15,51.0,41.8,33.0,42.0,32.9,28.0,99,74,45,0.00,40.00,15,6,32,0.00
2013-4-16,48.0,38.6,33.0,32.0,29.9,28.0,90,72,48,0.00,40.00,9,4,14,0.00
2013-4-17,39.0,35.7,29.0,38.0,34.0,28.0,99,94,76,0.00,40.00,12,6,24,0.00
2013-4-18,41.0,38.5,36.0,40.0,38.2,35.0,99,99,99,0.00,40.00,11,6,19,0.00
2013-4-19,36.0,32.7,29.0,35.0,27.4,22.0,99,82,65,0.00,40.00,21,14,35,0.00
2013-4-20,43.0,33.4,23.0,26.0,17.5,11.0,93,57,27,0.00,40.00,9,4,17,0.00
2013-4-21,51.0,38.5,29.0,41.0,31.6,21.0,99,78,56,0.00,40.00,14,6,24,0.00
2013-4-22,49.0,47.4,46.0,48.0,45.5,41.0,99,93,72,0.00,40.00,9,4,17,0.00
2013-4-23,49.0,38.4,31.0,49.0,33.1,26.0,99,83,61,0.00,40.00,15,8,21,0.00
2013-4-24,53.0,40.3,28.0,39.0,26.3,22.0,98,62,38,0.00,40.00,11,5,24,0.00
2013-4-25,49.0,41.4,32.0,39.0,32.6,26.0,99,74,43,0.00,40.00,10,5,23,0.00
2013-4-26,72.0,55.3,32.0,47.0,37.4,26.0,95,54,37,0.00,40.00,16,7,26,0.00
2013-4-27,73.0,60.4,48.0,50.0,47.9,45.0,98,67,43,0.00,40.00,10,5,17,0.00
2013-4-28,74.0,59.4,40.0,48.0,44.0,40.0,99,63,34,0.00,40.00,10,4,16,0.00
2013-4-29,72.0,65.2,56.0,58.0,53.5,46.0,97,67,55,0.00,40.00,10,5,17,0.00
2013-4-30,85.0,71.0,54.0,60.0,57.3,53.0,99,66,40,0.00,40.00,18,10,34,0.00
2013-5-6,76.0,70.5,55.0,47.0,41.7,38.0,73,37,28,0.00,40.00,4,3,10,0.00
2013-5-7,81.0,64.4,46.0,50.0,44.3,38.0,99,56,25,0.00,40.00,6,1,10,0.00
2013-5-8,83.0,64.6,47.0,52.0,47.4,44.0,97,61,29,0.00,40.00,6,1,19,0.00
2013-5-9,66.0,57.7,48.0,59.0,55.6,48.0,99,93,62,0.00,40.00,10,4,19,0.00
2013-5-10,63.0,49.4,40.0,48.0,40.9,-99.9,99,80,49,0.00,40.00,6,4,13,0.00
2013-5-11,51.0,46.8,42.0,49.0,33.3,-99.9,99,64,39,0.00,40.00,18,10,32,0.00
2013-5-12,53.0,44.0,35.0,28.0,24.7,21.0,74,49,29,0.00,40.00,15,9,26,0.00
2013-5-13,66.0,49.6,28.0,37.0,31.0,27.0,98,55,26,0.00,40.00,9,3,19,0.00
2013-5-14,90.0,72.1,58.0,58.0,50.3,37.0,74,49,29,0.00,40.00,11,6,22,0.00
2013-5-15,77.0,68.2,59.0,56.0,48.1,44.0,71,50,34,0.00,40.00,13,6,21,0.00
2013-5-16,84.0,62.4,53.0,54.0,22.4,-99.9,89,56,34,0.00,40.00,10,4,17,0.00
2013-5-17,65.0,54.3,48.0,57.0,44.6,-99.9,99,84,50,0.00,40.00,11,7,17,0.00
2013-5-18,78.0,63.9,51.0,66.0,58.0,51.0,99,83,61,0.00,40.00,9,5,15,0.00
2013-5-19,85.0,72.1,62.0,66.0,63.5,58.0,99,77,51,0.00,40.00,17,7,38,0.00
2013-5-20,80.0,71.8,62.0,64.0,60.2,57.0,99,70,49,0.00,40.00,17,7,38,0.00
2013-5-21,73.0,64.5,56.0,64.0,59.3,56.0,99,85,61,0.00,40.00,7,4,18,0.00
2013-5-22,59.0,56.3,51.0,59.0,56.0,51.0,99,99,99,0.00,40.00,6,2,12,0.00
2013-5-23,62.0,53.0,45.0,51.0,42.4,33.0,99,72,36,0.00,40.00,11,5,19,0.00
2013-5-24,65.0,52.6,36.0,49.0,38.7,34.0,99,64,36,0.00,40.00,6,2,12,0.00
2013-5-25,60.0,54.4,48.0,50.0,44.5,38.0,97,72,45,0.00,40.00,9,-38,15,0.00
2013-5-26,63.0,54.6,48.0,54.0,44.8,38.0,96,71,48,0.00,40.00,11,7,20,0.00
2013-5-27,56.0,53.9,51.0,55.0,50.2,44.0,99,88,68,0.00,40.00,13,8,23,0.00
2013-5-28,61.0,55.1,51.0,60.0,54.9,51.0,99,98,96,0.00,40.00,7,4,14,0.00
2013-5-29,80.0,63.8,58.0,66.0,61.7,57.0,99,94,58,0.00,40.00,9,2,16,0.00
2013-5-30,80.0,70.5,63.0,71.0,66.4,62.0,99,88,60,0.00,40.00,14,8,29,0.00
2013-5-31,79.0,69.6,63.0,65.0,61.8,58.0,98,78,49,0.00,40.00,14,8,27,0.00
2013-6-1,74.0,64.8,55.0,64.0,55.8,-99.9,97,79,52,0.00,40.00,19,6,36,0.00
2013-6-2,62.0,52.5,45.0,54.0,43.1,40.0,99,73,48,0.00,40.00,12,7,26,0.00
2013-6-3,72.0,61.0,43.0,49.0,45.9,43.0,99,62,41,0.00,40.00,6,3,11,0.00
2013-6-4,56.0,54.3,52.0,56.0,54.0,52.0,99,99,98,0.00,40.00,11,4,17,0.00
2013-6-5,57.0,53.5,51.0,57.0,53.2,51.0,99,99,99,0.00,40.00,12,6,18,0.00
2013-6-6,56.0,53.6,51.0,55.0,53.2,51.0,99,99,96,0.00,40.00,7,4,10,0.00
2013-6-7,71.0,58.1,49.0,56.0,51.6,49.0,99,81,50,0.00,40.00,5,2,7,0.00
2013-6-8,68.0,59.1,53.0,60.0,56.6,53.0,99,92,75,0.00,40.00,8,3,14,0.00
2013-6-9,72.0,61.7,55.0,66.0,58.8,53.0,99,91,71,0.00,40.00,13,6,20,0.00
2013-6-10,69.0,62.3,58.0,67.0,61.6,58.0,99,98,93,0.00,40.00,2,1,7,0.00
2013-6-11,79.0,73.4,67.0,70.0,67.4,65.0,99,83,64,0.00,40.00,4,2,11,0.00
2013-6-12,76.0,68.3,63.0,71.0,66.6,62.0,99,95,79,0.00,40.00,7,3,13,0.00
2013-6-13,76.0,67.6,59.0,61.0,57.3,53.0,99,73,47,0.00,40.00,8,3,16,0.00
2013-6-14,78.0,72.9,59.0,62.0,57.3,54.0,95,60,48,0.00,40.00,7,4,15,0.00
2013-6-15,81.0,69.7,61.0,72.0,65.4,61.0,99,87,65,0.00,40.00,11,4,18,0.00
2013-6-16,82.0,71.7,58.0,66.0,57.1,50.0,99,66,35,0.00,40.00,11,4,19,0.00
2013-6-17,81.0,70.4,61.0,63.0,58.6,55.0,94,68,41,0.00,40.00,11,4,24,0.00
2013-6-18,74.0,64.6,56.0,63.0,52.5,45.0,98,67,45,0.00,40.00,7,5,13,0.00
2013-6-19,80.0,66.8,48.0,61.0,53.8,48.0,99,68,45,0.00,40.00,6,2,11,0.00
2013-6-20,85.0,70.2,56.0,63.0,59.5,56.0,99,73,45,0.00,40.00,8,4,17,0.00
2013-6-22,83.0,73.7,64.0,72.0,68.5,63.0,99,85,61,0.00,40.00,8,6,15,0.00
2013-6-23,82.0,73.9,65.0,73.0,68.3,65.0,99,84,64,0.00,40.00,14,6,25,0.00
2013-6-24,80.0,72.4,66.0,72.0,68.5,65.0,99,89,74,0.00,40.00,9,3,19,0.00
2013-6-25,81.0,72.3,65.0,76.0,69.9,65.0,99,92,74,0.00,40.00,6,3,12,0.00
2013-6-26,85.0,74.7,71.0,76.0,72.3,70.0,99,93,62,0.00,40.00,6,3,13,0.00
2013-6-27,86.0,76.1,69.0,73.0,65.5,57.0,99,74,45,0.00,40.00,14,5,29,0.00
2013-6-28,73.0,68.9,65.0,68.0,62.8,57.0,99,82,60,0.00,40.00,11,7,21,0.00
2013-6-29,69.0,64.6,61.0,65.0,62.0,56.0,99,91,76,0.00,40.00,9,3,16,0.00
2013-6-30,78.0,64.2,55.0,59.0,53.4,49.0,96,71,37,0.00,40.00,9,2,15,0.00
2013-7-1,81.0,70.8,51.0,63.0,55.1,51.0,99,63,39,0.00,40.00,7,3,16,0.00
2013-7-2,76.0,65.3,56.0,63.0,57.3,53.0,99,79,48,0.00,40.00,7,3,12,0.00
2013-7-3,77.0,64.1,48.0,62.0,55.3,48.0,99,77,42,0.00,40.00,7,3,12,0.00
2013-7-4,84.0,70.1,56.0,64.0,59.4,56.0,99,72,42,0.00,40.00,7,3,14,0.00
2013-7-5,86.0,73.8,58.0,64.0,61.1,58.0,99,69,41,0.00,40.00,12,5,22,0.00
2013-7-6,88.0,76.1,69.0,68.0,65.4,63.0,87,70,50,0.00,40.00,8,5,17,0.00
2013-7-7,87.0,78.6,72.0,74.0,70.3,67.0,91,77,61,0.00,40.00,9,4,18,0.00
2013-7-8,90.0,81.0,76.0,78.0,74.2,72.0,91,81,63,0.00,40.00,9,4,16,0.00
2013-7-9,86.0,76.7,67.0,78.0,72.8,67.0,99,89,67,0.00,40.00,12,4,22,0.00
2013-7-10,77.0,70.5,62.0,72.0,56.3,-99.9,97,66,48,0.00,40.00,12,7,21,0.00
2013-7-11,84.0,68.7,56.0,64.0,59.1,56.0,99,76,41,0.00,40.00,6,1,8,0.00
2013-7-12,84.0,72.9,59.0,65.0,59.6,57.0,99,68,41,0.00,40.00,8,-29,15,0.00
2013-7-13,83.0,71.1,59.0,67.0,61.7,59.0,99,75,46,0.00,40.00,9,-7,18,0.00
2013-7-14,89.0,72.0,57.0,70.0,63.6,57.0,99,79,45,0.00,40.00,8,2,14,0.00
2013-7-15,90.0,75.9,63.0,75.0,69.3,63.0,99,82,57,0.00,40.00,5,2,12,0.00
2013-7-16,92.0,77.8,69.0,76.0,72.8,69.0,99,87,53,0.00,40.00,4,1,11,0.00
2013-7-17,92.0,81.5,73.0,76.0,73.3,69.0,99,79,48,0.00,40.00,6,2,12,0.00
2013-7-18,93.0,82.6,73.0,74.0,71.8,70.0,99,73,48,0.00,40.00,12,5,25,0.00
2013-7-19,90.0,80.4,71.0,74.0,67.9,61.0,97,67,37,0.00,40.00,12,-6,24,0.00
2013-7-20,83.0,71.2,61.0,66.0,60.8,-99.9,99,74,49,0.00,40.00,7,2,10,0.00
2013-7-21,70.0,65.8,61.0,67.0,63.6,59.0,99,93,75,0.00,40.00,7,5,15,0.00
2013-7-22,86.0,69.2,60.0,74.0,65.2,59.0,99,89,61,0.00,40.00,9,4,18,0.00
2013-7-23,73.0,66.4,57.0,71.0,57.5,53.0,97,74,54,0.00,40.00,9,5,19,0.00
2013-7-24,75.0,63.6,48.0,60.0,52.7,48.0,99,72,42,0.00,40.00,6,1,9,0.00
2013-7-25,80.0,66.2,55.0,68.0,61.6,55.0,99,87,57,0.00,40.00,9,4,18,0.00
2013-7-26,75.0,66.9,57.0,68.0,60.8,52.0,99,83,48,0.00,40.00,11,6,26,0.00
2013-7-27,60.0,53.6,47.0,53.0,49.8,46.0,99,88,67,0.00,40.00,11,7,19,0.00
2013-7-28,65.0,57.1,49.0,56.0,52.3,49.0,99,85,64,0.00,40.00,13,7,18,0.00
2013-7-29,77.0,65.2,53.0,61.0,54.7,51.0,99,73,46,0.00,40.00,6,2,9,0.00
2013-7-30,78.0,67.2,55.0,65.0,59.7,54.0,99,80,55,0.00,40.00,8,2,11,0.00
2013-7-31,79.0,68.8,64.0,67.0,64.7,61.0,99,88,57,0.00,40.00,7,3,13,0.00
2013-8-1,78.0,65.6,59.0,63.0,59.7,54.0,99,83,47,0.00,40.00,11,3,16,0.00
2013-8-2,78.0,68.1,59.0,65.0,57.5,51.0,99,74,41,0.00,40.00,9,4,15,0.00
2013-8-3,75.0,65.4,52.0,58.0,52.5,48.0,99,67,40,0.00,40.00,11,4,17,0.00
2013-8-4,74.0,62.8,49.0,59.0,53.7,49.0,99,76,45,0.00,40.00,4,1,7,0.00
2013-8-5,71.0,62.8,53.0,66.0,60.3,53.0,99,93,79,0.00,40.00,9,3,17,0.00
2013-8-6,84.0,78.9,65.0,71.0,66.1,63.0,99,67,49,0.00,40.00,9,4,15,0.00
2013-8-7,74.0,63.9,61.0,64.0,62.5,60.0,99,95,70,0.00,40.00,11,5,23,0.00
2013-8-8,78.0,70.3,52.0,61.0,54.9,51.0,99,61,42,0.00,40.00,6,2,10,0.00
2013-8-9,78.0,69.2,60.0,63.0,58.4,54.0,97,71,45,0.00,40.00,10,4,16,0.00
2013-8-10,73.0,64.6,55.0,58.0,54.9,51.0,99,74,48,0.00,40.00,6,2,10,0.00
2013-8-11,69.0,62.6,55.0,67.0,61.6,55.0,99,97,85,0.00,40.00,4,1,6,0.00
2013-8-12,79.0,66.9,57.0,67.0,59.6,56.0,99,81,46,0.00,40.00,9,3,17,0.00
2013-8-13,71.0,59.6,49.0,58.0,48.5,-99.9,99,73,46,0.00,40.00,7,2,13,0.00
2013-8-14,74.0,60.1,48.0,57.0,51.6,48.0,99,77,45,0.00,40.00,5,2,10,0.00
2013-8-15,80.0,61.2,55.0,59.0,46.0,-99.9,99,71,39,0.00,40.00,6,2,11,0.00
2013-8-16,83.0,66.7,51.0,60.0,55.2,51.0,99,72,38,0.00,40.00,4,1,8,0.00
2013-8-17,83.0,63.2,51.0,62.0,53.2,-99.9,99,78,38,0.00,40.00,4,0,9,0.00
2013-8-18,83.0,66.2,52.0,61.0,57.3,52.0,99,78,41,0.00,40.00,7,2,15,0.00
2013-8-19,84.0,66.0,55.0,66.0,54.3,-99.9,99,77,50,0.00,40.00,9,3,16,0.00
2013-8-20,87.0,77.0,65.0,69.0,66.8,64.0,96,73,54,0.00,40.00,12,5,21,0.00
2013-8-21,89.0,78.5,71.0,76.0,71.0,67.0,99,79,61,0.00,40.00,11,5,23,0.00
2013-8-22,83.0,72.4,63.0,70.0,62.7,57.0,99,76,41,0.00,40.00,7,2,14,0.00
2013-8-23,85.0,68.8,56.0,63.0,59.0,55.0,99,76,43,0.00,40.00,7,2,14,0.00
2013-8-24,85.0,70.4,56.0,70.0,59.8,-99.9,99,75,42,0.00,40.00,10,4,17,0.00
2013-8-25,91.0,81.1,74.0,74.0,72.3,70.0,91,76,58,0.00,40.00,10,8,22,0.00
2013-8-26,91.0,80.8,76.0,79.0,72.9,67.0,92,78,66,0.00,40.00,9,5,19,0.00
2013-8-27,87.0,80.8,78.0,79.0,74.7,73.0,92,82,65,0.00,40.00,7,4,13,0.00
2013-8-28,85.0,80.4,75.0,74.0,71.5,70.0,96,76,63,0.00,40.00,6,3,9,0.00
2013-8-29,89.0,75.6,64.0,75.0,69.9,63.0,99,85,60,0.00,40.00,7,3,14,0.00
2013-8-30,88.0,79.7,72.0,76.0,72.3,66.0,98,80,53,0.00,40.00,9,-37,20,0.00
2013-8-31,84.0,70.6,61.0,68.0,61.5,-99.9,99,79,48,0.00,40.00,8,3,12,0.00
2013-9-1,81.0,73.3,66.0,72.0,64.7,57.0,99,77,49,0.00,40.00,14,5,21,0.00
2013-9-2,69.0,61.7,52.0,62.0,55.2,51.0,99,81,53,0.00,40.00,9,4,16,0.00
2013-9-3,74.0,60.0,42.0,56.0,50.3,42.0,99,75,43,0.00,40.00,7,2,13,0.00
2013-9-4,84.0,73.3,53.0,68.0,61.5,53.0,99,70,49,0.00,40.00,7,3,11,0.00
2013-9-5,80.0,68.3,61.0,65.0,59.9,56.0,99,78,46,0.00,40.00,9,4,16,0.00
2013-9-6,89.0,71.7,59.0,67.0,59.8,50.0,99,69,44,0.00,40.00,11,4,20,0.00
2013-9-7,85.0,74.5,70.0,72.0,63.9,-99.9,93,73,60,0.00,40.00,7,3,14,0.00
2013-9-8,73.0,68.4,62.0,70.0,63.4,58.0,99,85,67,0.00,40.00,11,8,21,0.00
2013-9-9,90.0,77.1,63.0,75.0,68.9,63.0,99,78,57,0.00,40.00,8,5,17,0.00
2013-9-10,88.0,80.4,72.0,71.0,66.2,62.0,79,63,52,0.00,40.00,7,4,19,0.00
2013-9-11,85.0,73.8,64.0,68.0,63.6,57.0,95,73,46,0.00,40.00,7,2,19,0.00
2013-9-12,71.0,62.3,54.0,57.0,52.7,46.0,99,74,46,0.00,40.00,13,6,21,0.00
2013-9-13,66.0,53.3,41.0,47.0,41.6,35.0,99,70,34,0.00,40.00,6,2,14,0.00
2013-9-14,73.0,60.3,40.0,55.0,42.5,-99.9,99,59,39,0.00,40.00,7,3,16,0.00
2013-9-15,65.0,58.1,55.0,57.0,54.9,53.0,99,90,65,0.00,40.00,6,3,11,0.00
2013-9-16,63.0,53.5,40.0,50.0,43.2,39.0,99,72,42,0.00,40.00,7,3,14,0.00
2013-9-17,66.0,52.9,38.0,59.0,48.8,38.0,99,88,55,0.00,40.00,8,3,12,0.00
2013-9-18,63.0,60.6,58.0,61.0,59.6,58.0,99,96,93,0.00,40.00,5,4,13,0.00
2013-9-19,82.0,76.1,68.0,74.0,71.3,67.0,99,86,71,0.00,40.00,11,5,23,0.00
2013-9-20,68.0,62.9,55.0,68.0,59.8,52.0,99,90,68,0.00,40.00,9,6,17,0.00
2013-9-21,56.0,55.8,55.0,52.0,52.0,52.0,90,88,88,0.00,40.00,6,6,11,0.00
2013-10-30,54.0,53.3,53.0,54.0,52.9,52.0,99,98,94,0.00,40.00,9,5,14,0.00
2013-10-31,54.0,49.1,41.0,54.0,48.8,40.0,99,99,96,0.00,40.00,12,4,21,0.00
2013-11-1,46.0,42.4,40.0,42.0,39.8,36.0,99,91,79,0.00,40.00,12,6,21,0.00
2013-11-2,45.0,39.2,31.0,37.0,32.7,-99.9,98,82,68,0.00,40.00,9,5,16,0.00
2013-11-3,51.0,38.1,23.0,37.0,29.9,23.0,99,76,45,0.00,40.00,12,5,22,0.00
2013-11-4,50.0,46.3,43.0,47.0,39.8,34.0,99,79,66,0.00,40.00,11,6,20,0.00
2013-11-5,47.0,41.3,31.0,45.0,40.6,31.0,99,98,87,0.00,40.00,7,2,13,0.00
2013-11-6,42.0,37.6,30.0,42.0,30.8,20.0,99,79,42,0.00,40.00,15,8,25,0.00
2013-11-7,37.0,31.4,26.0,31.0,28.5,25.0,99,90,77,0.00,40.00,7,3,13,0.00
2013-11-8,44.0,34.9,24.0,34.0,28.5,23.0,99,80,54,0.00,40.00,12,5,22,0.00
2013-11-9,47.0,43.2,39.0,42.0,34.0,-99.9,87,73,60,0.00,40.00,19,10,31,0.00
2013-11-10,47.0,40.7,36.0,31.0,29.3,28.0,74,64,49,0.00,40.00,12,6,23,0.00
2013-11-11,42.0,30.6,21.0,35.0,21.6,9.0,99,71,52,0.00,40.00,13,8,23,0.00
2013-11-12,28.0,22.5,18.0,14.0,11.8,8.0,78,64,51,0.00,40.00,9,5,15,0.00
2013-11-13,45.0,31.8,18.0,26.0,18.5,13.0,81,60,44,0.00,40.00,14,6,25,0.00
2013-11-14,50.0,41.2,34.0,32.0,25.8,19.0,69,54,45,0.00,40.00,9,5,17,0.00
2013-11-15,55.0,42.3,29.0,37.0,33.1,28.0,98,73,48,0.00,40.00,6,-21,11,0.00
2013-11-16,59.0,46.7,39.0,56.0,42.9,-99.9,99,91,73,0.00,40.00,10,6,19,0.00
2013-11-17,55.0,45.6,37.0,52.0,43.6,30.0,99,93,75,0.00,40.00,20,9,34,0.00
2013-11-18,37.0,31.0,24.0,30.0,23.4,20.0,85,74,67,0.00,40.00,23,12,34,0.00
2013-11-19,41.0,30.3,17.0,27.0,22.0,16.0,99,74,47,0.00,40.00,11,5,18,0.00
2013-11-20,39.0,36.6,34.0,36.0,30.0,26.0,99,79,60,0.00,40.00,10,6,19,0.00
2013-11-21,39.0,36.3,30.0,38.0,35.7,30.0,99,98,94,0.00,40.00,11,4,16,0.00
2013-11-22,33.0,27.5,24.0,30.0,18.5,11.0,98,71,45,0.00,40.00,14,7,24,0.00
2013-11-23,24.0,14.5,9.0,16.0,3.7,-99.9,79,65,55,0.00,40.00,14,8,24,0.00
2013-11-24,25.0,17.1,4.0,8.0,4.4,2.0,92,61,41,0.00,40.00,16,6,29,0.00
2013-11-25,36.0,30.5,24.0,28.0,20.5,7.0,89,67,44,0.00,40.00,13,8,25,0.00
2013-11-26,35.0,23.8,13.0,25.0,13.0,3.0,79,63,51,0.00,40.00,15,9,29,0.00
2013-11-27,26.0,18.5,11.0,13.0,9.4,3.0,86,69,52,0.00,40.00,9,5,16,0.00
2013-11-28,29.0,24.1,15.0,16.0,13.6,11.0,83,64,57,0.00,40.00,10,5,19,0.00
2013-11-29,32.0,20.6,6.0,20.0,14.6,6.0,98,79,53,0.00,40.00,7,3,14,0.00
2013-11-30,47.0,35.4,29.0,29.0,24.2,-99.9,79,67,50,0.00,40.00,11,5,19,0.00
2013-12-1,40.0,31.3,23.0,29.0,26.3,22.0,99,83,59,0.00,40.00,5,1,9,0.00
2013-12-2,39.0,28.9,18.0,34.0,27.1,17.0,99,93,73,0.00,40.00,10,5,19,0.00
2013-12-3,34.0,33.1,32.0,34.0,32.9,32.0,99,99,99,0.00,40.00,10,7,17,0.00
2013-12-4,32.0,32.0,32.0,32.0,32.0,32.0,99,99,99,0.00,40.00,7,6,11,0.00
2013-12-6,8.0,5.6,3.0,0.0,-0.9,-2.0,82,76,67,0.00,40.00,9,5,14,0.00
2013-12-7,11.0,2.6,-3.0,0.0,-5.4,-99.9,89,74,52,0.00,40.00,9,3,14,0.00
2013-12-8,12.0,8.2,3.0,10.0,5.5,0.0,95,88,74,0.00,40.00,9,4,14,0.00
2013-12-9,13.0,6.1,-2.0,10.0,1.8,-7.0,96,82,63,0.00,40.00,14,5,22,0.00
2013-12-10,14.0,7.8,-2.0,9.0,1.2,-6.0,89,75,62,0.00,40.00,14,7,28,0.00
2013-12-11,12.0,2.6,-3.0,10.0,-3.8,-11.0,93,75,56,0.00,40.00,12,6,22,0.00
2013-12-12,21.0,10.5,-3.0,12.0,3.2,-8.0,81,72,60,0.00,40.00,7,4,14,0.00
2013-12-13,21.0,17.2,13.0,15.0,11.1,5.0,89,77,66,0.00,40.00,9,-10,16,0.00
2013-12-14,22.0,16.2,13.0,18.0,11.7,-99.9,92,86,73,0.00,40.00,12,5,22,0.00
2013-12-15,13.0,5.1,-2.0,10.0,-2.3,-10.0,88,72,56,0.00,40.00,15,-5,22,0.00
2013-12-16,13.0,2.4,-6.0,10.0,-2.8,-11.0,91,79,66,0.00,40.00,4,1,7,0.00
2013-12-17,31.0,25.8,15.0,27.0,18.9,7.0,92,75,64,0.00,40.00,16,10,25,0.00
2013-12-18,37.0,22.2,2.0,29.0,14.4,-1.0,91,73,51,0.00,40.00,11,4,22,0.00
2013-12-19,32.0,24.5,22.0,29.0,20.8,18.0,97,86,82,0.00,40.00,10,6,18,0.00
2013-12-20,22.0,20.1,18.0,21.0,19.8,18.0,99,99,97,0.00,40.00,7,3,12,0.00
2013-12-21,26.0,23.5,21.0,26.0,21.7,-99.9,99,97,95,0.00,40.00,4,2,7,0.00
2013-12-22,26.0,23.4,22.0,24.0,21.9,21.0,99,94,84,0.00,40.00,7,-38,14,0.00
2013-12-23,22.0,7.6,-4.0,22.0,5.0,-6.0,99,89,78,0.00,40.00,9,6,14,0.00
2013-12-24,15.0,6.1,-14.0,9.0,2.3,-16.0,94,84,75,0.00,40.00,8,4,14,0.00
2013-12-25,23.0,16.4,9.0,21.0,13.8,8.0,96,89,76,0.00,40.00,12,4,18,0.00
2013-12-26,24.0,18.9,12.0,20.0,15.5,10.0,98,87,74,0.00,40.00,9,2,14,0.00
2013-12-27,38.0,24.0,5.0,31.0,20.1,4.0,99,86,66,0.00,40.00,12,3,21,0.00
2013-12-28,45.0,36.6,21.0,31.0,27.9,21.0,99,73,54,0.00,40.00,9,4,17,0.00
2013-12-29,40.0,15.8,-3.0,33.0,10.7,-11.0,99,80,67,0.00,40.00,16,11,29,0.00
2013-12-30,4.0,-0.3,-16.0,-3.0,-6.6,-19.0,89,75,50,0.00,40.00,4,2,9,0.00
2013-12-31,5.0,0.7,-7.0,-1.0,-4.0,-12.0,92,81,66,0.00,40.00,7,3,12,0.00
2014-1-1,7.0,1.0,-8.0,-3.0,-6.7,-12.0,83,71,58,0.00,40.00,6,2,11,0.00
2014-1-2,10.0,3.8,-7.0,-2.0,-4.3,-12.0,81,69,54,0.00,40.00,8,3,15,0.00